sensor_id;sensor_type;location;lat;lon;timestamp;pressure;altitude;pressure_sealevel;temperature
1532;BMP280;759;53.170;8.210;2023-01-19T00:01:30;98650.44;;;2.82
1532;BMP280;759;53.170;8.210;2023-01-19T00:03:55;98651.19;;;2.82
1532;BMP280;759;53.170;8.210;2023-01-19T00:06:20;98651.19;;;2.82
1532;BMP280;759;53.170;8.210;2023-01-19T00:08:45;98658.75;;;2.84
1532;BMP280;759;53.170;8.210;2023-01-19T00:11:12;98658.75;;;2.84
1532;BMP280;759;53.170;8.210;2023-01-19T00:13:38;98658.75;;;2.84
1532;BMP280;759;53.170;8.210;2023-01-19T00:16:04;98664.03;;;2.84
1532;BMP280;759;53.170;8.210;2023-01-19T00:18:29;98681.38;;;2.85
1532;BMP280;759;53.170;8.210;2023-01-19T00:20:54;98670.44;;;2.83
1532;BMP280;759;53.170;8.210;2023-01-19T00:23:20;98670.06;;;2.81
1532;BMP280;759;53.170;8.210;2023-01-19T00:25:45;98669.69;;;2.75
1532;BMP280;759;53.170;8.210;2023-01-19T00:28:13;98673.47;;;2.70
1532;BMP280;759;53.170;8.210;2023-01-19T00:30:38;98675.69;;;2.68
1532;BMP280;759;53.170;8.210;2023-01-19T00:33:04;98672.72;;;2.66
1532;BMP280;759;53.170;8.210;2023-01-19T00:35:29;98676.09;;;2.67
1532;BMP280;759;53.170;8.210;2023-01-19T00:37:55;98678.34;;;2.68
1532;BMP280;759;53.170;8.210;2023-01-19T00:40:20;98684.03;;;2.63
1532;BMP280;759;53.170;8.210;2023-01-19T00:42:46;98677.63;;;2.64
1532;BMP280;759;53.170;8.210;2023-01-19T00:45:13;98687.06;;;2.65
1532;BMP280;759;53.170;8.210;2023-01-19T00:47:39;98681.78;;;2.65
1532;BMP280;759;53.170;8.210;2023-01-19T00:50:05;98686.69;;;2.63
1532;BMP280;759;53.170;8.210;2023-01-19T00:52:30;98687.44;;;2.64
1532;BMP280;759;53.170;8.210;2023-01-19T00:54:56;98683.66;;;2.61
1532;BMP280;759;53.170;8.210;2023-01-19T00:57:21;98679.13;;;2.62
1532;BMP280;759;53.170;8.210;2023-01-19T00:59:46;98678.75;;;2.60
1532;BMP280;759;53.170;8.210;2023-01-19T01:02:11;98688.19;;;2.61
1532;BMP280;759;53.170;8.210;2023-01-19T01:04:37;98684.41;;;2.58
1532;BMP280;759;53.170;8.210;2023-01-19T01:07:02;98681.03;;;2.57
1532;BMP280;759;53.170;8.210;2023-01-19T01:09:28;98688.56;;;2.59
1532;BMP280;759;53.170;8.210;2023-01-19T01:11:53;98681.41;;;2.60
1532;BMP280;759;53.170;8.210;2023-01-19T01:14:18;98685.94;;;2.63
1532;BMP280;759;53.170;8.210;2023-01-19T01:16:43;98685.94;;;2.63
1532;BMP280;759;53.170;8.210;2023-01-19T01:19:09;98688.94;;;2.61
1532;BMP280;759;53.170;8.210;2023-01-19T01:21:34;98691.97;;;2.63
1532;BMP280;759;53.170;8.210;2023-01-19T01:23:59;98692.72;;;2.64
1532;BMP280;759;53.170;8.210;2023-01-19T01:26:25;98686.69;;;2.63
1532;BMP280;759;53.170;8.210;2023-01-19T01:28:50;98682.16;;;2.64
1532;BMP280;759;53.170;8.210;2023-01-19T01:31:15;98686.31;;;2.61
1532;BMP280;759;53.170;8.210;2023-01-19T01:33:40;98681.78;;;2.62
1532;BMP280;759;53.170;8.210;2023-01-19T01:36:06;98684.41;;;2.62
1532;BMP280;759;53.170;8.210;2023-01-19T01:38:31;98687.44;;;2.64
1532;BMP280;759;53.170;8.210;2023-01-19T01:40:56;98693.47;;;2.64
1532;BMP280;759;53.170;8.210;2023-01-19T01:43:21;98699.50;;;2.61
1532;BMP280;759;53.170;8.210;2023-01-19T01:45:46;98693.44;;;2.61
1532;BMP280;759;53.170;8.210;2023-01-19T01:48:13;98689.69;;;2.62
1532;BMP280;759;53.170;8.210;2023-01-19T01:50:41;98688.94;;;2.61
1532;BMP280;759;53.170;8.210;2023-01-19T01:53:28;98699.50;;;2.61
1532;BMP280;759;53.170;8.210;2023-01-19T01:55:54;98698.38;;;2.62
1532;BMP280;759;53.170;8.210;2023-01-19T01:58:19;98710.06;;;2.61
1532;BMP280;759;53.170;8.210;2023-01-19T02:00:45;98702.53;;;2.63
1532;BMP280;759;53.170;8.210;2023-01-19T02:03:29;98699.50;;;2.61
1532;BMP280;759;53.170;8.210;2023-01-19T02:05:56;98692.72;;;2.60
1532;BMP280;759;53.170;8.210;2023-01-19T02:08:26;98698.38;;;2.62
1532;BMP280;759;53.170;8.210;2023-01-19T02:11:11;98688.56;;;2.59
1532;BMP280;759;53.170;8.210;2023-01-19T02:13:54;98682.91;;;2.57
1532;BMP280;759;53.170;8.210;2023-01-19T02:16:20;98682.91;;;2.57
1532;BMP280;759;53.170;8.210;2023-01-19T02:18:45;98679.88;;;2.55
1532;BMP280;759;53.170;8.210;2023-01-19T02:23:48;98680.28;;;2.57
1532;BMP280;759;53.170;8.210;2023-01-19T02:26:15;98680.66;;;2.55
1532;BMP280;759;53.170;8.210;2023-01-19T02:28:43;98675.75;;;2.54
1532;BMP280;759;53.170;8.210;2023-01-19T02:31:10;98676.84;;;2.53
1532;BMP280;759;53.170;8.210;2023-01-19T02:33:36;98676.88;;;2.46
1532;BMP280;759;53.170;8.210;2023-01-19T02:36:01;98676.84;;;2.49
1532;BMP280;759;53.170;8.210;2023-01-19T02:38:27;98671.97;;;2.44
1532;BMP280;759;53.170;8.210;2023-01-19T02:40:54;98658.75;;;2.41
1532;BMP280;759;53.170;8.210;2023-01-19T02:43:19;98658.03;;;2.40
1532;BMP280;759;53.170;8.210;2023-01-19T02:45:45;98658.41;;;2.42
1532;BMP280;759;53.170;8.210;2023-01-19T02:48:12;98647.84;;;2.38
1532;BMP280;759;53.170;8.210;2023-01-19T02:50:38;98653.47;;;2.37
1532;BMP280;759;53.170;8.210;2023-01-19T02:55:35;98654.22;;;2.37
1532;BMP280;759;53.170;8.210;2023-01-19T02:58:10;98655.75;;;2.38
1532;BMP280;759;53.170;8.210;2023-01-19T03:11:13;98637.66;;;2.33
1532;BMP280;759;53.170;8.210;2023-01-19T03:16:05;98638.44;;;2.30
1532;BMP280;759;53.170;8.210;2023-01-19T03:18:32;98641.44;;;2.29
1532;BMP280;759;53.170;8.210;2023-01-19T03:21:00;98644.47;;;2.31
1532;BMP280;759;53.170;8.210;2023-01-19T03:23:27;98644.84;;;2.29
1532;BMP280;759;53.170;8.210;2023-01-19T03:25:54;98649.00;;;2.30
1532;BMP280;759;53.170;8.210;2023-01-19T03:28:20;98644.84;;;2.29
1532;BMP280;759;53.170;8.210;2023-01-19T03:30:49;98646.72;;;2.29
1532;BMP280;759;53.170;8.210;2023-01-19T03:33:22;98637.66;;;2.26
1532;BMP280;759;53.170;8.210;2023-01-19T03:35:51;98636.91;;;2.22
1532;BMP280;759;53.170;8.210;2023-01-19T03:38:19;98639.19;;;2.27
1532;BMP280;759;53.170;8.210;2023-01-19T03:40:46;98636.91;;;2.26
1532;BMP280;759;53.170;8.210;2023-01-19T03:43:11;98640.69;;;2.28
1532;BMP280;759;53.170;8.210;2023-01-19T03:45:37;98644.09;;;2.25
1532;BMP280;759;53.170;8.210;2023-01-19T03:48:03;98638.06;;;2.25
1532;BMP280;759;53.170;8.210;2023-01-19T03:50:29;98639.19;;;2.27
1532;BMP280;759;53.170;8.210;2023-01-19T03:53:04;98633.91;;;2.27
1532;BMP280;759;53.170;8.210;2023-01-19T03:55:29;98633.91;;;2.27
1532;BMP280;759;53.170;8.210;2023-01-19T03:57:54;98635.41;;;2.28
1532;BMP280;759;53.170;8.210;2023-01-19T04:00:19;98632.78;;;2.25
1532;BMP280;759;53.170;8.210;2023-01-19T04:02:45;98642.56;;;2.28
1532;BMP280;759;53.170;8.210;2023-01-19T04:05:10;98639.91;;;2.24
1532;BMP280;759;53.170;8.210;2023-01-19T04:07:35;98641.81;;;2.24
1532;BMP280;759;53.170;8.210;2023-01-19T04:10:00;98644.47;;;2.27
1532;BMP280;759;53.170;8.210;2023-01-19T04:12:26;98644.09;;;2.29
1532;BMP280;759;53.170;8.210;2023-01-19T04:14:51;98647.47;;;2.26
1532;BMP280;759;53.170;8.210;2023-01-19T04:17:16;98644.47;;;2.27
1532;BMP280;759;53.170;8.210;2023-01-19T04:19:41;98647.09;;;2.24
1532;BMP280;759;53.170;8.210;2023-01-19T04:22:07;98639.91;;;2.24
1532;BMP280;759;53.170;8.210;2023-01-19T04:24:32;98645.19;;;2.24
1532;BMP280;759;53.170;8.210;2023-01-19T04:26:57;98637.66;;;2.26
1532;BMP280;759;53.170;8.210;2023-01-19T04:29:23;98647.84;;;2.28
1532;BMP280;759;53.170;8.210;2023-01-19T04:31:48;98634.28;;;2.22
1532;BMP280;759;53.170;8.210;2023-01-19T04:34:13;98631.63;;;2.22
1532;BMP280;759;53.170;8.210;2023-01-19T04:36:38;98620.34;;;2.22
1532;BMP280;759;53.170;8.210;2023-01-19T04:39:04;98607.50;;;2.16
1532;BMP280;759;53.170;8.210;2023-01-19T04:41:29;98608.28;;;2.17
1532;BMP280;759;53.170;8.210;2023-01-19T04:43:54;98584.13;;;2.15
1532;BMP280;759;53.170;8.210;2023-01-19T04:46:20;98587.19;;;2.17
1532;BMP280;759;53.170;8.210;2023-01-19T04:51:48;98586.41;;;2.13
1532;BMP280;759;53.170;8.210;2023-01-19T04:54:13;98566.06;;;2.17
1532;BMP280;759;53.170;8.210;2023-01-19T04:56:39;98560.78;;;2.10
1532;BMP280;759;53.170;8.210;2023-01-19T04:59:07;98555.50;;;2.10
1532;BMP280;759;53.170;8.210;2023-01-19T05:01:32;98551.00;;;2.14
1532;BMP280;759;53.170;8.210;2023-01-19T05:03:58;98556.63;;;2.12
1532;BMP280;759;53.170;8.210;2023-01-19T05:06:23;98567.19;;;2.09
1532;BMP280;759;53.170;8.210;2023-01-19T05:08:48;98566.06;;;2.10
1532;BMP280;759;53.170;8.210;2023-01-19T05:11:13;98561.91;;;2.09
1532;BMP280;759;53.170;8.210;2023-01-19T05:13:38;98575.47;;;2.11
1532;BMP280;759;53.170;8.210;2023-01-19T05:16:04;98572.47;;;2.09
1532;BMP280;759;53.170;8.210;2023-01-19T05:18:30;98586.03;;;2.11
1532;BMP280;759;53.170;8.210;2023-01-19T05:21:00;98589.03;;;2.13
1532;BMP280;759;53.170;8.210;2023-01-19T05:23:25;98585.28;;;2.14
1532;BMP280;759;53.170;8.210;2023-01-19T05:25:50;98582.66;;;2.14
1532;BMP280;759;53.170;8.210;2023-01-19T05:28:15;98583.75;;;2.16
1532;BMP280;759;53.170;8.210;2023-01-19T05:30:41;98585.66;;;2.12
1532;BMP280;759;53.170;8.210;2023-01-19T05:33:06;98586.41;;;2.13
1532;BMP280;759;53.170;8.210;2023-01-19T05:35:31;98567.94;;;2.13
1532;BMP280;759;53.170;8.210;2023-01-19T05:37:56;98572.09;;;2.14
1532;BMP280;759;53.170;8.210;2023-01-19T05:40:21;98582.28;;;2.12
1532;BMP280;759;53.170;8.210;2023-01-19T05:42:47;98563.81;;;2.12
1532;BMP280;759;53.170;8.210;2023-01-19T05:45:12;98568.31;;;2.15
1532;BMP280;759;53.170;8.210;2023-01-19T05:47:37;98569.81;;;2.12
1532;BMP280;759;53.170;8.210;2023-01-19T05:50:04;98581.91;;;2.13
1532;BMP280;759;53.170;8.210;2023-01-19T05:52:29;98568.31;;;2.15
1532;BMP280;759;53.170;8.210;2023-01-19T05:54:54;98566.06;;;2.13
1532;BMP280;759;53.170;8.210;2023-01-19T05:57:20;98565.66;;;2.15
1532;BMP280;759;53.170;8.210;2023-01-19T05:59:45;98575.09;;;2.12
1532;BMP280;759;53.170;8.210;2023-01-19T06:02:10;98563.06;;;2.11
1532;BMP280;759;53.170;8.210;2023-01-19T06:04:35;98566.81;;;2.14
1532;BMP280;759;53.170;8.210;2023-01-19T06:07:01;98563.03;;;2.15
1532;BMP280;759;53.170;8.210;2023-01-19T06:09:26;98579.63;;;2.15
1532;BMP280;759;53.170;8.210;2023-01-19T06:11:51;98568.31;;;2.15
1532;BMP280;759;53.170;8.210;2023-01-19T06:14:18;98572.84;;;2.14
1532;BMP280;759;53.170;8.210;2023-01-19T06:16:43;98578.88;;;2.15
1532;BMP280;759;53.170;8.210;2023-01-19T06:19:08;98592.44;;;2.13
1532;BMP280;759;53.170;8.210;2023-01-19T06:21:33;98587.91;;;2.14
1532;BMP280;759;53.170;8.210;2023-01-19T06:23:59;98601.47;;;2.16
1532;BMP280;759;53.170;8.210;2023-01-19T06:26:24;98600.75;;;2.15
1532;BMP280;759;53.170;8.210;2023-01-19T06:28:50;98594.69;;;2.15
1532;BMP280;759;53.170;8.210;2023-01-19T06:31:15;98593.56;;;2.16
1532;BMP280;759;53.170;8.210;2023-01-19T06:33:41;98588.66;;;2.18
1532;BMP280;759;53.170;8.210;2023-01-19T06:36:06;98592.44;;;2.17
1532;BMP280;759;53.170;8.210;2023-01-19T06:38:31;98591.69;;;2.16
1532;BMP280;759;53.170;8.210;2023-01-19T06:40:56;98594.69;;;2.15
1532;BMP280;759;53.170;8.210;2023-01-19T06:43:27;98596.97;;;2.16
1532;BMP280;759;53.170;8.210;2023-01-19T06:45:52;98598.47;;;2.21
1532;BMP280;759;53.170;8.210;2023-01-19T06:48:18;98593.94;;;2.22
1532;BMP280;759;53.170;8.210;2023-01-19T06:50:44;98604.13;;;2.23
1532;BMP280;759;53.170;8.210;2023-01-19T06:53:09;98609.41;;;2.20
1532;BMP280;759;53.170;8.210;2023-01-19T06:55:35;98614.31;;;2.21
1532;BMP280;759;53.170;8.210;2023-01-19T06:58:00;98613.16;;;2.22
1532;BMP280;759;53.170;8.210;2023-01-19T07:00:26;98613.53;;;2.21
1532;BMP280;759;53.170;8.210;2023-01-19T07:02:51;98625.25;;;2.23
1532;BMP280;759;53.170;8.210;2023-01-19T07:05:16;98619.59;;;2.21
1532;BMP280;759;53.170;8.210;2023-01-19T07:07:42;98637.66;;;2.26
1532;BMP280;759;53.170;8.210;2023-01-19T07:10:09;98641.81;;;2.24
1532;BMP280;759;53.170;8.210;2023-01-19T07:12:35;98642.94;;;2.23
1532;BMP280;759;53.170;8.210;2023-01-19T07:15:00;98649.72;;;2.24
1532;BMP280;759;53.170;8.210;2023-01-19T07:17:26;98655.00;;;2.34
1532;BMP280;759;53.170;8.210;2023-01-19T07:19:51;98672.34;;;2.28
1532;BMP280;759;53.170;8.210;2023-01-19T07:22:16;98671.59;;;2.28
1532;BMP280;759;53.170;8.210;2023-01-19T07:24:41;98669.31;;;2.26
1532;BMP280;759;53.170;8.210;2023-01-19T07:27:07;98664.81;;;2.27
1532;BMP280;759;53.170;8.210;2023-01-19T07:29:32;98666.69;;;2.26
1532;BMP280;759;53.170;8.210;2023-01-19T07:31:57;98678.38;;;2.29
1532;BMP280;759;53.170;8.210;2023-01-19T07:34:22;98691.59;;;2.29
1532;BMP280;759;53.170;8.210;2023-01-19T07:36:48;98693.44;;;2.28
1532;BMP280;759;53.170;8.210;2023-01-19T07:39:13;98697.22;;;2.27
1532;BMP280;759;53.170;8.210;2023-01-19T07:41:39;98694.22;;;2.29
1532;BMP280;759;53.170;8.210;2023-01-19T07:44:04;98703.25;;;2.31
1532;BMP280;759;53.170;8.210;2023-01-19T07:46:29;98697.59;;;2.29
1532;BMP280;759;53.170;8.210;2023-01-19T07:48:54;98694.19;;;2.32
1532;BMP280;759;53.170;8.210;2023-01-19T07:51:19;98699.47;;;2.40
1532;BMP280;759;53.170;8.210;2023-01-19T07:53:45;98701.75;;;2.41
1532;BMP280;759;53.170;8.210;2023-01-19T07:56:10;98720.59;;;2.47
1532;BMP280;759;53.170;8.210;2023-01-19T07:58:36;98719.06;;;2.49
1532;BMP280;759;53.170;8.210;2023-01-19T08:01:05;98733.06;;;2.50
1532;BMP280;759;53.170;8.210;2023-01-19T08:03:30;98734.91;;;2.49
1532;BMP280;759;53.170;8.210;2023-01-19T08:05:55;98744.00;;;2.52
1532;BMP280;759;53.170;8.210;2023-01-19T08:08:21;98734.16;;;2.49
1532;BMP280;759;53.170;8.210;2023-01-19T08:10:49;98736.06;;;2.52
1532;BMP280;759;53.170;8.210;2023-01-19T08:13:15;98738.72;;;2.52
1532;BMP280;759;53.170;8.210;2023-01-19T08:15:40;98738.31;;;2.50
1532;BMP280;759;53.170;8.210;2023-01-19T08:18:05;98742.09;;;2.52
1532;BMP280;759;53.170;8.210;2023-01-19T08:20:33;98740.97;;;2.50
1532;BMP280;759;53.170;8.210;2023-01-19T08:22:58;98740.59;;;2.51
1532;BMP280;759;53.170;8.210;2023-01-19T08:25:45;98740.59;;;2.51
1532;BMP280;759;53.170;8.210;2023-01-19T08:28:11;98760.19;;;2.50
1532;BMP280;759;53.170;8.210;2023-01-19T08:30:37;98760.94;;;2.51
1532;BMP280;759;53.170;8.210;2023-01-19T08:33:02;98764.34;;;2.48
1532;BMP280;759;53.170;8.210;2023-01-19T08:35:31;98765.09;;;2.52
1532;BMP280;759;53.170;8.210;2023-01-19T08:37:57;98765.84;;;2.52
1532;BMP280;759;53.170;8.210;2023-01-19T08:40:29;98768.88;;;2.54
1532;BMP280;759;53.170;8.210;2023-01-19T08:43:01;98777.53;;;2.55
1532;BMP280;759;53.170;8.210;2023-01-19T08:45:32;98777.16;;;2.53
1532;BMP280;759;53.170;8.210;2023-01-19T08:47:58;98802.06;;;2.59
1532;BMP280;759;53.170;8.210;2023-01-19T08:50:24;98801.31;;;2.58
1532;BMP280;759;53.170;8.210;2023-01-19T08:52:49;98805.09;;;2.61
1532;BMP280;759;53.170;8.210;2023-01-19T08:55:15;98802.47;;;2.65
1532;BMP280;759;53.170;8.210;2023-01-19T08:57:40;98808.84;;;2.71
1532;BMP280;759;53.170;8.210;2023-01-19T09:00:06;98814.88;;;2.71
1532;BMP280;759;53.170;8.210;2023-01-19T09:02:33;98816.78;;;2.74
1532;BMP280;759;53.170;8.210;2023-01-19T09:04:58;98817.91;;;2.73
1532;BMP280;759;53.170;8.210;2023-01-19T09:07:24;98816.41;;;2.80
1532;BMP280;759;53.170;8.210;2023-01-19T09:09:49;98820.22;;;2.86
1532;BMP280;759;53.170;8.210;2023-01-19T09:12:14;98831.88;;;2.85
1532;BMP280;759;53.170;8.210;2023-01-19T09:14:40;98832.25;;;2.83
1532;BMP280;759;53.170;8.210;2023-01-19T09:17:05;98832.28;;;2.87
1532;BMP280;759;53.170;8.210;2023-01-19T09:19:31;98836.03;;;2.82
1532;BMP280;759;53.170;8.210;2023-01-19T09:21:56;98845.84;;;2.89
1532;BMP280;759;53.170;8.210;2023-01-19T09:24:23;98838.69;;;2.93
1532;BMP280;759;53.170;8.210;2023-01-19T09:26:48;98851.88;;;2.93
1532;BMP280;759;53.170;8.210;2023-01-19T09:29:13;98861.69;;;2.89
1532;BMP280;759;53.170;8.210;2023-01-19T09:31:38;98865.47;;;2.95
1532;BMP280;759;53.170;8.210;2023-01-19T09:34:05;98862.06;;;2.98
1532;BMP280;759;53.170;8.210;2023-01-19T09:36:30;98873.03;;;3.04
1532;BMP280;759;53.170;8.210;2023-01-19T09:38:56;98877.56;;;3.07
1532;BMP280;759;53.170;8.210;2023-01-19T09:41:21;98896.06;;;3.10
1532;BMP280;759;53.170;8.210;2023-01-19T09:43:51;98895.31;;;3.13
1532;BMP280;759;53.170;8.210;2023-01-19T09:46:31;98905.50;;;3.15
1532;BMP280;759;53.170;8.210;2023-01-19T09:48:58;98913.44;;;3.18
1532;BMP280;759;53.170;8.210;2023-01-19T09:51:31;98916.81;;;3.15
1532;BMP280;759;53.170;8.210;2023-01-19T09:53:59;98916.84;;;3.19
1532;BMP280;759;53.170;8.210;2023-01-19T09:56:28;98937.59;;;3.21
1532;BMP280;759;53.170;8.210;2023-01-19T09:58:53;98944.75;;;3.27
1532;BMP280;759;53.170;8.210;2023-01-19T10:03:44;98948.56;;;3.23
1532;BMP280;759;53.170;8.210;2023-01-19T10:06:09;98946.63;;;3.27
1532;BMP280;759;53.170;8.210;2023-01-19T10:11:15;98947.41;;;3.38
1532;BMP280;759;53.170;8.210;2023-01-19T10:13:43;98962.56;;;3.48
1532;BMP280;759;53.170;8.210;2023-01-19T10:23:43;98982.16;;;3.65
1532;BMP280;759;53.170;8.210;2023-01-19T10:26:15;98981.81;;;3.74
1532;BMP280;759;53.170;8.210;2023-01-19T10:28:41;98982.53;;;3.78
1532;BMP280;759;53.170;8.210;2023-01-19T10:31:07;98979.53;;;3.76
1532;BMP280;759;53.170;8.210;2023-01-19T10:33:34;98987.44;;;3.83
1532;BMP280;759;53.170;8.210;2023-01-19T10:36:23;98989.72;;;3.88
1532;BMP280;759;53.170;8.210;2023-01-19T10:38:45;98994.63;;;3.97
1532;BMP280;759;53.170;8.210;2023-01-19T10:41:18;98998.03;;;3.97
1532;BMP280;759;53.170;8.210;2023-01-19T10:43:45;99007.84;;;4.01
1532;BMP280;759;53.170;8.210;2023-01-19T10:48:39;99010.09;;;4.06
1532;BMP280;759;53.170;8.210;2023-01-19T10:51:06;99006.69;;;4.09
1532;BMP280;759;53.170;8.210;2023-01-19T10:53:32;99011.22;;;4.12
1532;BMP280;759;53.170;8.210;2023-01-19T10:56:16;99026.69;;;4.24
1532;BMP280;759;53.170;8.210;2023-01-19T10:58:44;99039.19;;;4.24
1532;BMP280;759;53.170;8.210;2023-01-19T11:01:17;99042.94;;;4.30
1532;BMP280;759;53.170;8.210;2023-01-19T11:03:43;99043.69;;;4.37
1532;BMP280;759;53.170;8.210;2023-01-19T11:08:37;99058.84;;;4.37
1532;BMP280;759;53.170;8.210;2023-01-19T11:11:02;99063.38;;;4.40
1532;BMP280;759;53.170;8.210;2023-01-19T11:13:29;99062.22;;;4.41
1532;BMP280;759;53.170;8.210;2023-01-19T11:15:55;99069.78;;;4.46
1532;BMP280;759;53.170;8.210;2023-01-19T11:18:31;99076.19;;;4.45
1532;BMP280;759;53.170;8.210;2023-01-19T11:20:58;99062.56;;;4.43
1532;BMP280;759;53.170;8.210;2023-01-19T11:23:32;99066.75;;;4.48
1532;BMP280;759;53.170;8.210;2023-01-19T11:25:59;99066.34;;;4.53
1532;BMP280;759;53.170;8.210;2023-01-19T11:28:32;99085.28;;;4.55
1532;BMP280;759;53.170;8.210;2023-01-19T11:33:32;99093.19;;;4.62
1532;BMP280;759;53.170;8.210;2023-01-19T11:36:05;99094.31;;;4.61
1532;BMP280;759;53.170;8.210;2023-01-19T11:38:31;99109.06;;;4.66
1532;BMP280;759;53.170;8.210;2023-01-19T11:40:57;99110.22;;;4.68
1532;BMP280;759;53.170;8.210;2023-01-19T11:43:23;99129.88;;;4.74
1532;BMP280;759;53.170;8.210;2023-01-19T11:45:51;99134.44;;;4.74
1532;BMP280;759;53.170;8.210;2023-01-19T11:48:28;99159.38;;;4.84
1532;BMP280;759;53.170;8.210;2023-01-19T11:50:56;99160.88;;;4.92
1532;BMP280;759;53.170;8.210;2023-01-19T11:53:24;99160.84;;;5.06
1532;BMP280;759;53.170;8.210;2023-01-19T11:56:03;99168.75;;;5.13
1532;BMP280;759;53.170;8.210;2023-01-19T11:58:30;99177.47;;;5.14
1532;BMP280;759;53.170;8.210;2023-01-19T12:00:59;99175.13;;;5.23
1532;BMP280;759;53.170;8.210;2023-01-19T12:03:39;99180.81;;;5.29
1532;BMP280;759;53.170;8.210;2023-01-19T12:06:10;99185.69;;;5.34
1532;BMP280;759;53.170;8.210;2023-01-19T12:11:04;99200.78;;;5.51
1532;BMP280;759;53.170;8.210;2023-01-19T12:13:31;99192.81;;;5.58
1532;BMP280;759;53.170;8.210;2023-01-19T12:15:58;99197.03;;;5.45
1532;BMP280;759;53.170;8.210;2023-01-19T12:18:27;99200.78;;;5.51
1532;BMP280;759;53.170;8.210;2023-01-19T12:20:54;99208.34;;;5.60
1532;BMP280;759;53.170;8.210;2023-01-19T12:23:26;99216.25;;;5.67
1532;BMP280;759;53.170;8.210;2023-01-19T12:28:30;99227.59;;;5.71
1532;BMP280;759;53.170;8.210;2023-01-19T12:30:57;99236.31;;;5.79
1532;BMP280;759;53.170;8.210;2023-01-19T12:33:34;99241.63;;;5.75
1532;BMP280;759;53.170;8.210;2023-01-19T12:36:00;99234.00;;;5.81
1532;BMP280;759;53.170;8.210;2023-01-19T12:38:46;99243.91;;;5.77
1532;BMP280;759;53.170;8.210;2023-01-19T12:41:22;99249.22;;;5.73
1532;BMP280;759;53.170;8.210;2023-01-19T12:44:13;99247.72;;;5.65
1532;BMP280;759;53.170;8.210;2023-01-19T12:46:34;99243.53;;;5.68
1532;BMP280;759;53.170;8.210;2023-01-19T12:49:09;99258.75;;;5.64
1532;BMP280;759;53.170;8.210;2023-01-19T12:51:34;99259.13;;;5.62
1532;BMP280;759;53.170;8.210;2023-01-19T12:54:00;99248.47;;;5.66
1532;BMP280;759;53.170;8.210;2023-01-19T12:56:29;99255.66;;;5.69
1532;BMP280;759;53.170;8.210;2023-01-19T12:58:55;99259.47;;;5.68
1532;BMP280;759;53.170;8.210;2023-01-19T13:01:20;99267.41;;;5.68
1532;BMP280;759;53.170;8.210;2023-01-19T13:12:10;99268.53;;;5.67
1532;BMP280;759;53.170;8.210;2023-01-19T13:14:36;99274.22;;;5.76
1532;BMP280;759;53.170;8.210;2023-01-19T13:17:02;99278.03;;;5.75
1532;BMP280;759;53.170;8.210;2023-01-19T13:19:31;99280.59;;;5.82
1532;BMP280;759;53.170;8.210;2023-01-19T13:21:59;99284.03;;;5.86
1532;BMP280;759;53.170;8.210;2023-01-19T13:25:03;99284.75;;;5.90
1532;BMP280;759;53.170;8.210;2023-01-19T13:27:28;99290.50;;;5.78
1532;BMP280;759;53.170;8.210;2023-01-19T13:29:54;99290.13;;;5.72
1532;BMP280;759;53.170;8.210;2023-01-19T13:32:19;99301.53;;;5.66
1532;BMP280;759;53.170;8.210;2023-01-19T13:34:52;99303.78;;;5.74
1532;BMP280;759;53.170;8.210;2023-01-19T13:37:19;99300.75;;;5.72
1532;BMP280;759;53.170;8.210;2023-01-19T13:39:45;99307.50;;;5.84
1532;BMP280;759;53.170;8.210;2023-01-19T13:42:24;99302.97;;;5.85
1532;BMP280;759;53.170;8.210;2023-01-19T13:44:51;99317.69;;;5.96
1532;BMP280;759;53.170;8.210;2023-01-19T13:47:21;99308.22;;;5.95
1532;BMP280;759;53.170;8.210;2023-01-19T13:49:48;99304.47;;;5.93
1532;BMP280;759;53.170;8.210;2023-01-19T13:52:22;99318.91;;;5.88
1532;BMP280;759;53.170;8.210;2023-01-19T13:54:58;99314.38;;;5.74
1532;BMP280;759;53.170;8.210;2023-01-19T13:57:25;99313.63;;;5.74
1532;BMP280;759;53.170;8.210;2023-01-19T14:00:02;99324.69;;;5.61
1532;BMP280;759;53.170;8.210;2023-01-19T14:02:27;99322.78;;;5.51
1532;BMP280;759;53.170;8.210;2023-01-19T14:04:52;99325.13;;;5.35
1532;BMP280;759;53.170;8.210;2023-01-19T14:07:19;99329.69;;;5.27
1532;BMP280;759;53.170;8.210;2023-01-19T14:10:05;99334.22;;;5.27
1532;BMP280;759;53.170;8.210;2023-01-19T14:12:33;99328.59;;;5.14
1532;BMP280;759;53.170;8.210;2023-01-19T14:14:59;99337.66;;;5.06
1532;BMP280;759;53.170;8.210;2023-01-19T14:17:25;99338.06;;;4.97
1532;BMP280;759;53.170;8.210;2023-01-19T14:19:54;99333.50;;;4.90
1532;BMP280;759;53.170;8.210;2023-01-19T14:22:20;99346.34;;;4.85
1532;BMP280;759;53.170;8.210;2023-01-19T14:24:45;99339.94;;;4.78
1532;BMP280;759;53.170;8.210;2023-01-19T14:27:18;99348.63;;;4.83
1532;BMP280;759;53.170;8.210;2023-01-19T14:29:43;99348.63;;;4.83
1532;BMP280;759;53.170;8.210;2023-01-19T14:34:40;99346.75;;;4.79
1532;BMP280;759;53.170;8.210;2023-01-19T14:39:43;99356.19;;;4.66
1532;BMP280;759;53.170;8.210;2023-01-19T14:42:13;99364.50;;;4.61
1532;BMP280;759;53.170;8.210;2023-01-19T14:44:39;99368.66;;;4.58
1532;BMP280;759;53.170;8.210;2023-01-19T14:47:05;99375.09;;;4.54
1532;BMP280;759;53.170;8.210;2023-01-19T14:51:56;99384.13;;;4.42
1532;BMP280;759;53.170;8.210;2023-01-19T14:54:32;99389.44;;;4.38
1532;BMP280;759;53.170;8.210;2023-01-19T14:56:58;99390.94;;;4.36
1532;BMP280;759;53.170;8.210;2023-01-19T14:59:23;99386.38;;;4.36
1532;BMP280;759;53.170;8.210;2023-01-19T15:01:49;99398.13;;;4.39
1532;BMP280;759;53.170;8.210;2023-01-19T15:04:14;99396.97;;;4.33
1532;BMP280;759;53.170;8.210;2023-01-19T15:06:39;99398.44;;;4.27
1532;BMP280;759;53.170;8.210;2023-01-19T15:09:05;99395.41;;;4.17
1532;BMP280;759;53.170;8.210;2023-01-19T15:11:31;99395.72;;;4.09
1532;BMP280;759;53.170;8.210;2023-01-19T15:13:57;99394.53;;;3.95
1532;BMP280;759;53.170;8.210;2023-01-19T15:16:23;99400.84;;;3.80
1532;BMP280;759;53.170;8.210;2023-01-19T15:18:49;99397.41;;;3.72
1532;BMP280;759;53.170;8.210;2023-01-19T15:21:15;99389.81;;;3.64
1532;BMP280;759;53.170;8.210;2023-01-19T15:23:43;99397.28;;;3.54
1532;BMP280;759;53.170;8.210;2023-01-19T15:26:09;99404.06;;;3.48
1532;BMP280;759;53.170;8.210;2023-01-19T15:28:35;99399.09;;;3.40
1532;BMP280;759;53.170;8.210;2023-01-19T15:31:00;99406.53;;;3.30
1532;BMP280;759;53.170;8.210;2023-01-19T15:33:26;99403.50;;;3.25
1532;BMP280;759;53.170;8.210;2023-01-19T15:35:54;99408.34;;;3.19
1532;BMP280;759;53.170;8.210;2023-01-19T15:38:19;99406.81;;;3.14
1532;BMP280;759;53.170;8.210;2023-01-19T15:40:45;99410.53;;;3.10
1532;BMP280;759;53.170;8.210;2023-01-19T15:43:10;99410.47;;;3.06
1532;BMP280;759;53.170;8.210;2023-01-19T15:45:36;99414.22;;;3.02
1532;BMP280;759;53.170;8.210;2023-01-19T15:48:06;99418.75;;;3.01
1532;BMP280;759;53.170;8.210;2023-01-19T15:50:32;99417.94;;;2.93
1532;BMP280;759;53.170;8.210;2023-01-19T15:52:57;99416.38;;;2.89
1532;BMP280;759;53.170;8.210;2023-01-19T15:55:23;99427.69;;;2.86
1532;BMP280;759;53.170;8.210;2023-01-19T15:57:48;99418.50;;;2.76
1532;BMP280;759;53.170;8.210;2023-01-19T16:00:13;99417.63;;;2.68
1532;BMP280;759;53.170;8.210;2023-01-19T16:02:39;99421.41;;;2.64